Time;durP1;ratioP1;P1;durP2;ratioP2;P2;SDS_P1;SDS_P2;PMS_P1;PMS_P2;Temp;Humidity;BMP_temperature;BMP_pressure;BME280_temperature;BME280_humidity;BME280_pressure;Samples;Min_cycle;Max_cycle;Signal;HPM_P1;HPM_P2
2022/12/09 00:02:54;;;;;;;12.40;6.27;;;;;;;0.25;96.79;100741.53;6254299;28;20227;-69
2022/12/09 00:06:17;;;;;;;10.37;7.77;;;;;;;0.24;96.71;100747.78;6252042;28;20228;-69
2022/12/09 00:09:38;;;;;;;10.67;6.67;;;;;;;0.15;97.04;100745.59;6252740;28;20223;-69
2022/12/09 00:12:59;;;;;;;12.20;9.70;;;;;;;0.36;97.08;100747.19;6263418;28;21190;-69
2022/12/09 00:16:22;;;;;;;10.27;7.17;;;;;;;0.43;96.04;100748.63;6251502;28;20334;-69
2022/12/09 00:19:46;;;;;;;13.17;6.67;;;;;;;0.35;95.20;100744.63;6255615;28;20232;-70
2022/12/09 00:23:06;;;;;;;16.03;7.60;;;;;;;0.21;95.21;100745.28;6499106;23;20323;-69
2022/12/09 00:26:28;;;;;;;18.10;8.60;;;;;;;0.16;96.54;100749.09;6229980;28;20527;-70
2022/12/09 00:29:48;;;;;;;12.73;8.53;;;;;;;-0.01;96.31;100741.97;6232023;28;20319;-70
2022/12/09 00:33:11;;;;;;;13.03;6.93;;;;;;;0.08;96.90;100748.63;6224686;28;20229;-69
2022/12/09 00:36:32;;;;;;;10.33;6.27;;;;;;;0.26;97.05;100755.66;6233209;28;20236;-70
2022/12/09 00:39:52;;;;;;;11.77;7.33;;;;;;;0.46;96.53;100750.25;6233934;28;20228;-70
2022/12/09 00:43:13;;;;;;;7.40;6.03;;;;;;;0.44;94.94;100749.50;6206161;28;20229;-69
2022/12/09 00:46:34;;;;;;;9.67;6.17;;;;;;;-0.04;95.89;100761.50;6231917;28;20232;-69
2022/12/09 00:49:56;;;;;;;12.87;6.60;;;;;;;-0.41;96.63;100772.09;6231850;28;20515;-69
2022/12/09 00:53:17;;;;;;;32.90;9.37;;;;;;;-0.59;98.80;100774.72;6228689;28;20241;-70
2022/12/09 00:56:38;;;;;;;10.83;6.90;;;;;;;-0.17;98.43;100775.41;6217367;28;20232;-69
2022/12/09 00:59:59;;;;;;;14.53;6.83;;;;;;;-0.21;97.99;100768.53;6230969;28;21047;-70
2022/12/09 01:03:21;;;;;;;15.43;8.53;;;;;;;-0.25;98.61;100766.97;6212300;28;20312;-69
2022/12/09 01:06:43;;;;;;;14.53;9.00;;;;;;;-0.23;98.27;100770.41;6226308;28;20232;-70
2022/12/09 01:10:05;;;;;;;17.10;8.13;;;;;;;-0.42;98.50;100772.16;6229717;28;21033;-69
2022/12/09 01:13:26;;;;;;;11.57;7.23;;;;;;;-0.38;98.65;100777.25;6228397;28;20240;-69
2022/12/09 01:16:47;;;;;;;18.67;8.63;;;;;;;-0.25;98.66;100781.03;6221887;28;20244;-70
2022/12/09 01:20:09;;;;;;;13.60;8.60;;;;;;;-0.22;99.27;100785.34;6232297;28;20696;-68
2022/12/09 01:23:32;;;;;;;13.33;8.87;;;;;;;0.06;98.35;100785.78;6213609;28;21095;-69
2022/12/09 01:26:52;;;;;;;15.37;8.77;;;;;;;0.15;98.51;100782.69;6232202;28;20585;-70
2022/12/09 01:30:14;;;;;;;13.60;8.30;;;;;;;0.08;97.67;100791.88;6225803;28;20227;-70
2022/12/09 01:33:35;;;;;;;14.63;9.30;;;;;;;-0.04;97.69;100787.13;6228061;28;20902;-69
2022/12/09 01:36:56;;;;;;;16.67;9.07;;;;;;;0.04;98.34;100782.34;6228342;28;20232;-69
2022/12/09 01:40:19;;;;;;;13.23;7.10;;;;;;;-0.09;98.30;100789.16;6213977;28;20243;-69
2022/12/09 01:43:40;;;;;;;9.23;6.93;;;;;;;0.02;98.01;100789.50;6211299;28;20236;-69
2022/12/09 01:47:02;;;;;;;16.17;9.10;;;;;;;0.05;98.18;100785.84;6222817;28;20225;-69
2022/12/09 01:50:25;;;;;;;13.00;8.07;;;;;;;0.24;98.42;100781.38;6227168;28;20233;-69
2022/12/09 01:53:51;;;;;;;10.90;7.13;;;;;;;0.51;96.92;100775.59;6228319;28;20463;-70
2022/12/09 01:57:14;;;;;;;9.73;7.67;;;;;;;0.67;96.95;100787.16;6211371;28;20265;-69
2022/12/09 02:00:36;;;;;;;20.73;7.97;;;;;;;0.70;96.19;100780.84;6209568;28;20232;-69
2022/12/09 02:03:58;;;;;;;11.97;7.90;;;;;;;0.64;96.77;100773.22;6212956;28;20256;-69
2022/12/09 02:07:19;;;;;;;13.43;7.57;;;;;;;0.90;96.56;100775.41;6222960;28;20240;-69
2022/12/09 02:10:48;;;;;;;13.73;9.23;;;;;;;0.79;96.57;100769.78;6212446;28;20232;-69
2022/12/09 02:14:17;;;;;;;13.57;8.63;;;;;;;0.49;96.90;100776.59;6210828;28;20251;-69
2022/12/09 02:17:49;;;;;;;13.50;8.60;;;;;;;0.58;97.18;100766.44;6217778;28;20546;-69
2022/12/09 02:21:12;;;;;;;11.43;9.53;;;;;;;0.68;97.40;100761.50;6210538;28;20221;-69
2022/12/09 02:24:41;;;;;;;15.17;8.83;;;;;;;0.63;97.50;100748.47;6212763;28;20233;-69
2022/12/09 02:28:23;;;;;;;18.00;10.30;;;;;;;0.62;97.77;100743.25;6212407;28;20235;-69
2022/12/09 02:32:14;;;;;;;12.73;7.90;;;;;;;0.62;97.83;100761.81;6214815;28;20236;-70
2022/12/09 02:35:42;;;;;;;16.27;9.23;;;;;;;0.71;97.84;100746.28;6230260;28;20224;-69
2022/12/09 02:39:05;;;;;;;15.00;10.60;;;;;;;0.88;97.25;100756.03;6225327;28;20334;-69
2022/12/09 02:42:30;;;;;;;19.10;10.37;;;;;;;0.88;97.55;100756.03;6214511;28;20445;-70
2022/12/09 02:45:56;;;;;;;15.83;9.00;;;;;;;0.76;97.69;100738.97;6210854;28;20241;-69
2022/12/09 02:49:19;;;;;;;13.90;10.00;;;;;;;0.92;97.01;100743.50;6230501;28;20233;-70
2022/12/09 02:52:43;;;;;;;18.17;8.93;;;;;;;0.95;97.04;100745.97;6214486;28;20229;-69
2022/12/09 02:56:06;;;;;;;16.10;10.73;;;;;;;0.89;96.44;100736.56;6214317;28;20228;-69
2022/12/09 02:59:28;;;;;;;17.77;10.00;;;;;;;0.85;97.11;100740.31;6223851;28;20224;-69
2022/12/09 03:02:52;;;;;;;14.00;10.10;;;;;;;0.99;97.32;100740.44;6224430;28;20232;-69
2022/12/09 03:06:19;;;;;;;12.77;10.10;;;;;;;0.92;97.36;100730.22;6222947;28;20224;-69
2022/12/09 03:09:46;;;;;;;11.73;8.63;;;;;;;0.86;97.04;100734.03;6223895;28;20327;-69
2022/12/09 03:13:16;;;;;;;11.90;8.43;;;;;;;0.86;96.49;100752.63;6229328;28;20232;-70
2022/12/09 03:16:44;;;;;;;16.13;9.53;;;;;;;0.80;96.97;100744.97;6220314;28;20376;-69
2022/12/09 03:20:10;;;;;;;19.50;11.60;;;;;;;0.94;96.99;100744.28;6228057;28;20502;-70
2022/12/09 03:23:32;;;;;;;22.67;9.23;;;;;;;0.88;96.44;100745.44;6227656;28;20361;-70
2022/12/09 03:26:55;;;;;;;24.10;8.40;;;;;;;0.85;96.63;100740.31;6228383;28;20228;-69
2022/12/09 03:30:16;;;;;;;11.00;7.83;;;;;;;0.87;96.65;100730.47;6220195;28;20315;-69
2022/12/09 03:33:37;;;;;;;15.03;10.07;;;;;;;0.89;96.45;100736.56;6232605;28;20229;-69
2022/12/09 03:37:00;;;;;;;11.33;7.90;;;;;;;0.96;95.82;100729.97;6223345;28;20236;-69
2022/12/09 03:40:25;;;;;;;14.60;8.37;;;;;;;0.98;95.42;100722.78;6233547;28;20319;-70
2022/12/09 03:43:53;;;;;;;11.93;8.57;;;;;;;0.93;95.65;100726.63;6231990;28;20572;-70
2022/12/09 03:47:14;;;;;;;7.37;6.23;;;;;;;0.91;95.77;100721.41;6225395;28;20251;-69
2022/12/09 03:50:46;;;;;;;16.30;8.67;;;;;;;0.78;95.88;100718.53;6230058;28;20244;-69
2022/12/09 03:54:16;;;;;;;11.20;9.33;;;;;;;0.81;95.73;100710.41;6233192;28;20683;-69
2022/12/09 03:57:42;;;;;;;12.20;8.40;;;;;;;0.78;95.93;100712.34;6229078;28;20232;-69
2022/12/09 04:01:06;;;;;;;9.10;6.97;;;;;;;0.72;95.96;100710.88;6228173;28;20685;-69
2022/12/09 04:04:28;;;;;;;11.37;8.00;;;;;;;0.87;96.44;100708.38;6230617;28;20543;-70
2022/12/09 04:07:48;;;;;;;14.67;10.30;;;;;;;0.83;95.93;100718.31;6232648;28;20233;-70
2022/12/09 04:11:09;;;;;;;23.33;9.23;;;;;;;0.68;95.84;100711.13;6234877;28;20243;-69
2022/12/09 04:14:30;;;;;;;9.73;8.73;;;;;;;0.59;95.92;100706.28;6231511;28;20526;-69
2022/12/09 04:17:53;;;;;;;12.10;9.13;;;;;;;0.64;97.41;100706.91;6233243;28;20228;-69
2022/12/09 04:21:13;;;;;;;13.63;7.90;;;;;;;0.86;97.65;100704.00;6233880;28;20228;-69
2022/12/09 04:24:34;;;;;;;13.77;9.07;;;;;;;0.70;96.53;100710.09;6232022;28;20229;-69
2022/12/09 04:27:55;;;;;;;11.53;7.20;;;;;;;0.68;96.53;100716.41;6233672;28;20331;-70
2022/12/09 04:31:17;;;;;;;12.03;7.67;;;;;;;0.61;96.25;100712.34;6227630;28;20244;-69
2022/12/09 04:34:39;;;;;;;10.00;7.87;;;;;;;0.50;97.03;100715.53;6230049;28;20229;-70
2022/12/09 04:38:00;;;;;;;14.10;10.00;;;;;;;0.49;97.62;100713.84;6230029;28;20232;-69
2022/12/09 04:41:21;;;;;;;10.73;8.23;;;;;;;0.55;97.26;100715.31;6229504;28;21115;-69
2022/12/09 04:44:43;;;;;;;13.63;10.70;;;;;;;0.49;96.82;100710.31;6228385;28;20501;-69
2022/12/09 04:48:04;;;;;;;12.03;7.10;;;;;;;0.47;96.22;100715.72;6230405;28;20224;-69
2022/12/09 04:51:27;;;;;;;12.90;8.20;;;;;;;0.40;97.25;100729.34;6235657;28;20232;-69
2022/12/09 04:54:49;;;;;;;17.50;8.63;;;;;;;0.45;97.00;100717.59;6229060;28;20232;-69
2022/12/09 04:58:10;;;;;;;14.77;7.20;;;;;;;0.49;96.37;100713.84;6229952;28;20520;-68
2022/12/09 05:01:31;;;;;;;11.83;8.60;;;;;;;0.53;96.74;100725.16;6228935;28;20679;-69
2022/12/09 05:04:51;;;;;;;11.63;7.77;;;;;;;0.54;97.56;100732.19;6229370;28;20228;-69
2022/12/09 05:08:14;;;;;;;12.43;9.00;;;;;;;0.62;96.33;100735.31;6213024;28;20241;-69
2022/12/09 05:11:35;;;;;;;12.70;7.90;;;;;;;0.45;96.81;100722.88;6230797;28;20232;-70
2022/12/09 05:14:57;;;;;;;11.70;8.33;;;;;;;0.30;96.35;100728.94;6230757;28;20236;-69
2022/12/09 05:18:18;;;;;;;25.97;16.70;;;;;;;0.44;96.16;100726.47;6227630;28;20527;-70
2022/12/09 05:21:39;;;;;;;17.60;11.60;;;;;;;0.49;96.23;100724.44;6230438;28;20224;-69
2022/12/09 05:25:01;;;;;;;13.17;9.40;;;;;;;0.35;95.44;100729.59;6229459;28;20237;-69
2022/12/09 05:28:23;;;;;;;15.43;9.20;;;;;;;0.43;95.82;100718.59;6232525;28;20252;-69
2022/12/09 05:31:44;;;;;;;14.20;9.50;;;;;;;0.62;95.59;100730.00;6227597;28;20257;-70
2022/12/09 05:35:05;;;;;;;12.10;9.60;;;;;;;0.75;94.67;100731.09;6232842;28;20848;-69
2022/12/09 05:38:26;;;;;;;15.00;9.77;;;;;;;0.95;94.61;100732.72;6234470;28;20252;-69
2022/12/09 05:41:48;;;;;;;14.10;9.40;;;;;;;0.80;94.20;100731.69;6230115;28;20244;-69
2022/12/09 05:45:10;;;;;;;15.40;10.60;;;;;;;0.73;94.24;100722.38;6226156;28;20232;-69
2022/12/09 05:48:32;;;;;;;13.37;9.90;;;;;;;0.80;94.37;100713.13;6227211;28;20645;-69
2022/12/09 05:51:53;;;;;;;17.03;9.10;;;;;;;0.97;94.34;100715.78;6228943;28;20233;-69
2022/12/09 05:55:13;;;;;;;23.53;11.20;;;;;;;0.89;94.20;100717.97;6228492;28;20225;-69
2022/12/09 05:58:36;;;;;;;15.30;9.57;;;;;;;0.87;94.00;100717.19;6228495;28;20816;-69
2022/12/09 06:01:57;;;;;;;14.20;9.47;;;;;;;0.85;94.36;100721.72;6183951;28;20736;-69
2022/12/09 06:05:18;;;;;;;23.77;11.00;;;;;;;1.05;94.34;100718.88;6225914;28;20240;-69
2022/12/09 06:08:39;;;;;;;14.60;9.73;;;;;;;1.09;93.59;100715.13;6224784;28;20221;-69
2022/12/09 06:12:00;;;;;;;13.00;9.13;;;;;;;1.09;93.61;100714.25;6218612;28;20665;-69
2022/12/09 06:15:22;;;;;;;14.67;10.10;;;;;;;1.10;93.64;100722.16;6220252;28;20251;-70
2022/12/09 06:18:43;;;;;;;14.83;9.20;;;;;;;1.22;93.30;100723.31;6222681;28;20229;-69
2022/12/09 06:22:04;;;;;;;16.80;9.30;;;;;;;1.16;93.69;100713.88;6224213;28;20279;-70
2022/12/09 06:25:25;;;;;;;11.63;8.37;;;;;;;1.20;93.06;100718.09;6224582;28;20237;-70
2022/12/09 06:28:45;;;;;;;15.67;9.83;;;;;;;1.26;92.44;100723.06;6224400;28;20220;-68
2022/12/09 06:32:08;;;;;;;15.20;9.57;;;;;;;1.13;92.97;100719.34;6226081;28;20335;-68
2022/12/09 06:35:29;;;;;;;12.27;8.67;;;;;;;1.31;92.19;100718.38;6221606;28;20236;-69
2022/12/09 06:38:49;;;;;;;14.13;10.03;;;;;;;1.40;92.08;100724.97;6223493;28;20241;-69
2022/12/09 06:42:10;;;;;;;16.97;9.50;;;;;;;1.28;91.29;100715.00;6221134;28;20241;-70
2022/12/09 06:45:31;;;;;;;20.37;9.40;;;;;;;1.35;91.88;100716.41;6212928;28;20740;-71
2022/12/09 06:48:55;;;;;;;14.63;8.50;;;;;;;1.52;91.51;100714.53;6215074;28;20229;-69
2022/12/09 06:52:15;;;;;;;14.60;9.57;;;;;;;1.46;92.02;100716.69;6223162;28;20232;-70
2022/12/09 06:55:36;;;;;;;11.73;10.47;;;;;;;1.23;92.71;100717.06;6223376;28;20260;-70
2022/12/09 06:58:58;;;;;;;13.77;10.23;;;;;;;1.40;92.75;100717.88;6218481;28;20240;-73
2022/12/09 07:02:19;;;;;;;16.05;13.02;;;;;;;2.44;95.16;100711.94;6217340;28;20738;-70
2022/12/09 07:05:41;;;;;;;16.53;10.70;;;;;;;1.46;91.94;100722.84;6222858;28;20232;-70
2022/12/09 07:09:05;;;;;;;13.73;8.50;;;;;;;1.28;92.94;100722.97;6223774;28;20228;-70
2022/12/09 07:12:26;;;;;;;11.30;9.23;;;;;;;1.24;93.43;100730.25;6224418;28;20224;-69
2022/12/09 07:15:47;;;;;;;12.87;8.37;;;;;;;1.18;93.33;100732.38;6224611;28;20220;-68
2022/12/09 07:19:08;;;;;;;13.57;9.93;;;;;;;1.10;94.03;100729.28;6215005;28;20610;-70
2022/12/09 07:22:32;;;;;;;13.77;8.93;;;;;;;1.04;94.15;100735.75;6224180;28;20236;-69
2022/12/09 07:25:56;;;;;;;10.37;7.83;;;;;;;0.91;94.31;100736.47;6229843;28;20256;-69
2022/12/09 07:29:17;;;;;;;16.93;8.83;;;;;;;0.92;94.60;100731.06;6227113;28;20255;-70
2022/12/09 07:32:38;;;;;;;16.17;9.00;;;;;;;0.87;95.51;100730.47;6221921;28;20327;-70
2022/12/09 07:35:59;;;;;;;18.10;10.57;;;;;;;0.82;95.55;100737.78;6206415;28;20233;-69
2022/12/09 07:39:21;;;;;;;14.03;9.67;;;;;;;0.80;95.37;100735.22;6227991;28;20229;-70
2022/12/09 07:42:42;;;;;;;19.57;10.63;;;;;;;0.59;96.15;100743.41;6238116;28;20552;-69
2022/12/09 07:46:06;;;;;;;19.10;10.33;;;;;;;0.83;95.75;100747.47;6211599;28;20918;-69
2022/12/09 07:49:26;;;;;;;16.87;11.90;;;;;;;0.69;96.20;100749.94;6231294;28;20534;-70
2022/12/09 07:52:47;;;;;;;11.47;9.37;;;;;;;0.50;96.74;100765.09;6228949;28;20221;-69
2022/12/09 07:56:13;;;;;;;12.47;8.93;;;;;;;0.68;96.79;100762.38;6230661;28;20665;-67
2022/12/09 07:59:34;;;;;;;10.90;8.60;;;;;;;0.90;95.40;100759.47;6228727;28;20229;-69
2022/12/09 08:02:55;;;;;;;14.40;9.17;;;;;;;1.08;95.13;100763.84;6221652;28;20233;-68
2022/12/09 08:06:18;;;;;;;9.50;7.23;;;;;;;1.24;94.58;100766.56;6224217;28;20228;-70
2022/12/09 08:09:39;;;;;;;14.13;9.20;;;;;;;0.88;94.71;100761.34;6229941;28;20239;-70
2022/12/09 08:13:01;;;;;;;11.07;9.23;;;;;;;0.74;95.36;100777.09;6215707;28;20248;-71
2022/12/09 08:16:22;;;;;;;14.43;8.80;;;;;;;0.95;95.50;100768.06;6224476;28;20236;-68
2022/12/09 08:19:44;;;;;;;13.63;10.20;;;;;;;1.24;95.22;100769.22;6230313;28;20793;-71
2022/12/09 08:23:05;;;;;;;13.87;8.33;;;;;;;1.24;94.17;100767.41;6230453;28;20578;-70
2022/12/09 08:26:29;;;;;;;15.37;10.67;;;;;;;1.12;94.10;100770.72;6219021;28;20232;-69
2022/12/09 08:29:51;;;;;;;14.03;9.33;;;;;;;1.26;93.92;100770.84;6220559;28;20270;-69
2022/12/09 08:33:12;;;;;;;16.30;9.57;;;;;;;1.47;93.97;100772.38;6222057;28;20912;-71
2022/12/09 08:36:33;;;;;;;12.90;8.53;;;;;;;1.51;92.99;100763.31;6214395;28;20232;-69
2022/12/09 08:39:54;;;;;;;13.03;7.53;;;;;;;1.40;93.38;100773.63;6225976;28;20237;-69
2022/12/09 08:43:14;;;;;;;16.97;11.00;;;;;;;1.38;93.12;100764.88;6226775;28;20843;-70
2022/12/09 08:46:38;;;;;;;11.20;8.90;;;;;;;1.28;93.08;100761.00;6226895;28;20716;-70
2022/12/09 08:50:00;;;;;;;10.63;8.37;;;;;;;1.36;93.21;100763.25;6225475;28;20229;-69
2022/12/09 08:53:20;;;;;;;13.57;8.83;;;;;;;1.60;92.84;100761.97;6227858;28;20280;-69
2022/12/09 08:56:44;;;;;;;11.97;7.23;;;;;;;1.40;92.88;100763.00;6215040;28;20233;-68
2022/12/09 09:00:06;;;;;;;12.97;9.03;;;;;;;1.44;92.91;100758.41;6221120;28;20232;-69
2022/12/09 09:03:28;;;;;;;12.47;6.53;;;;;;;1.42;92.72;100761.13;6210615;28;20236;-69
2022/12/09 09:06:50;;;;;;;11.53;7.50;;;;;;;1.40;92.47;100756.84;6221968;28;20232;-69
2022/12/09 09:10:12;;;;;;;12.07;7.47;;;;;;;1.48;92.50;100766.13;6229221;28;20232;-68
2022/12/09 09:13:32;;;;;;;13.20;8.33;;;;;;;1.76;91.69;100765.50;6228899;28;20232;-69
2022/12/09 09:16:53;;;;;;;14.03;8.27;;;;;;;1.80;91.74;100771.50;6222882;28;20240;-71
2022/12/09 09:20:16;;;;;;;15.80;10.43;;;;;;;1.90;91.16;100767.41;6231699;28;20232;-69
2022/12/09 09:23:37;;;;;;;13.33;10.07;;;;;;;1.51;91.78;100765.97;6225836;28;20598;-70
2022/12/09 09:26:58;;;;;;;12.40;9.03;;;;;;;1.41;92.71;100767.41;6229733;28;20224;-69
2022/12/09 09:30:19;;;;;;;11.87;10.17;;;;;;;1.52;92.61;100769.50;6219545;28;20231;-68
2022/12/09 09:33:41;;;;;;;9.87;7.43;;;;;;;1.45;92.26;100768.94;6221928;28;21010;-73
2022/12/09 09:37:03;;;;;;;12.10;8.40;;;;;;;1.63;92.22;100760.94;6216895;28;20228;-68
2022/12/09 09:40:23;;;;;;;12.67;8.83;;;;;;;1.50;92.77;100766.06;6224397;28;20224;-71
2022/12/09 09:43:44;;;;;;;14.47;7.77;;;;;;;1.93;91.71;100756.59;6223427;28;20240;-71
2022/12/09 09:47:14;;;;;;;14.27;8.70;;;;;;;1.63;91.61;100756.47;6223078;28;20224;-69
2022/12/09 09:50:42;;;;;;;8.73;7.33;;;;;;;1.60;92.01;100769.94;6224513;28;20232;-70
2022/12/09 09:54:05;;;;;;;11.03;7.63;;;;;;;1.58;92.25;100750.56;6231549;28;20801;-71
2022/12/09 09:57:39;;;;;;;10.90;6.93;;;;;;;1.77;91.67;100751.28;6227437;28;20232;-67
2022/12/09 10:01:05;;;;;;;10.70;6.70;;;;;;;1.52;92.13;100756.22;6224384;28;20228;-70
2022/12/09 10:04:33;;;;;;;10.13;6.53;;;;;;;1.82;91.95;100756.31;6222243;28;20220;-72
2022/12/09 10:07:59;;;;;;;14.97;8.17;;;;;;;2.06;91.83;100755.84;6212728;28;20247;-69
2022/12/09 10:11:26;;;;;;;10.13;7.10;;;;;;;2.08;90.19;100753.09;6210998;28;20228;-69
2022/12/09 10:14:54;;;;;;;12.00;7.73;;;;;;;1.97;90.10;100752.81;6216243;28;20233;-70
2022/12/09 10:18:21;;;;;;;7.73;6.40;;;;;;;2.12;89.11;100744.00;6218585;28;20223;-72
2022/12/09 10:21:44;;;;;;;16.17;8.93;;;;;;;2.26;89.53;100752.03;6218367;28;20503;-69
2022/12/09 10:25:16;;;;;;;8.53;6.10;;;;;;;2.56;88.13;100738.81;6214578;28;20311;-69
2022/12/09 10:28:42;;;;;;;11.27;7.57;;;;;;;3.45;84.52;100742.22;6218154;28;20561;-70
2022/12/09 10:32:03;;;;;;;9.13;7.00;;;;;;;4.25;81.89;100731.75;6215390;28;20256;-70
2022/12/09 10:35:27;;;;;;;6.30;5.20;;;;;;;4.73;78.52;100730.31;6216763;28;20244;-69
2022/12/09 10:38:48;;;;;;;8.23;5.87;;;;;;;4.84;77.20;100728.63;6216314;28;20225;-69
2022/12/09 10:45:51;;;;;;;10.00;5.63;;;;;;;3.94;79.26;100732.84;6222957;28;22172;-69
2022/12/09 10:49:20;;;;;;;8.90;5.67;;;;;;;3.89;79.50;100726.97;6220101;28;20224;-71
2022/12/09 10:52:44;;;;;;;7.87;6.83;;;;;;;3.61;81.20;100734.97;6215778;28;20240;-71
2022/12/09 10:56:06;;;;;;;9.33;7.00;;;;;;;3.33;82.01;100735.00;6222229;28;20241;-72
2022/12/09 10:59:29;;;;;;;8.47;6.47;;;;;;;3.64;81.14;100736.59;6217799;28;20264;-71
2022/12/09 11:02:53;;;;;;;10.30;6.77;;;;;;;4.41;80.22;100735.13;6219426;28;20248;-71
2022/12/09 11:06:21;;;;;;;11.47;5.80;;;;;;;5.36;73.44;100727.75;6226796;28;20252;-69
2022/12/09 11:09:45;;;;;;;10.60;8.23;;;;;;;5.45;73.52;100730.63;6229440;28;20258;-69
2022/12/09 11:13:08;;;;;;;9.37;5.80;;;;;;;4.92;75.42;100735.28;6219193;28;20265;-69
2022/12/09 11:16:29;;;;;;;10.97;5.97;;;;;;;4.83;75.92;100732.28;6213274;28;20236;-70
2022/12/09 11:19:53;;;;;;;8.73;7.80;;;;;;;5.34;76.08;100725.16;6219564;28;20228;-70
2022/12/09 11:23:18;;;;;;;11.60;5.93;;;;;;;7.22;67.82;100714.72;6217812;28;20228;-70
2022/12/09 11:26:40;;;;;;;10.97;7.93;;;;;;;7.74;65.72;100706.16;6220823;28;20228;-70
2022/12/09 11:30:13;;;;;;;11.37;7.03;;;;;;;6.04;69.15;100718.38;6226473;28;20228;-70
2022/12/09 11:33:37;;;;;;;5.80;5.17;;;;;;;4.48;74.34;100725.78;6218041;28;20510;-69
2022/12/09 11:37:01;;;;;;;7.67;5.13;;;;;;;3.90;78.02;100734.00;6222696;28;20233;-70
2022/12/09 11:40:24;;;;;;;12.20;7.30;;;;;;;3.71;79.05;100727.28;6208540;28;20225;-70
2022/12/09 11:43:48;;;;;;;7.10;5.87;;;;;;;4.36;78.55;100720.38;6225922;28;20240;-69
2022/12/09 11:47:12;;;;;;;8.83;6.17;;;;;;;4.76;77.02;100722.94;6218542;28;20252;-71
2022/12/09 11:50:40;;;;;;;7.10;5.37;;;;;;;5.08;75.34;100725.25;6226345;28;20237;-70
2022/12/09 11:54:13;;;;;;;8.07;5.97;;;;;;;4.36;77.50;100729.22;6225455;28;20220;-70
2022/12/09 11:57:38;;;;;;;9.27;6.80;;;;;;;3.83;79.67;100740.69;6218628;28;20228;-73
2022/12/09 12:01:04;;;;;;;8.50;6.67;;;;;;;2.84;83.93;100742.41;6226848;28;20228;-75
2022/12/09 12:04:32;;;;;;;10.33;6.67;;;;;;;2.87;84.38;100728.94;6232137;28;20236;-74
2022/12/09 12:08:05;;;;;;;7.13;4.57;;;;;;;3.04;84.19;100727.91;6231274;28;20228;-74
2022/12/09 12:11:36;;;;;;;8.70;5.73;;;;;;;2.99;84.47;100728.19;6224787;28;20649;-74
2022/12/09 12:15:02;;;;;;;7.90;6.13;;;;;;;3.02;84.27;100717.38;6226777;28;20236;-74
2022/12/09 12:18:23;;;;;;;9.17;5.80;;;;;;;3.04;84.34;100726.13;6232976;28;20676;-74
2022/12/09 12:21:58;;;;;;;10.17;5.83;;;;;;;3.73;84.03;100715.59;6221835;28;20535;-69
2022/12/09 12:25:31;;;;;;;6.43;4.40;;;;;;;4.46;79.27;100709.00;6215984;28;20232;-69
2022/12/09 12:29:20;;;;;;;8.03;6.07;;;;;;;5.24;75.97;100699.16;6231664;28;21513;-69
2022/12/09 12:33:06;;;;;;;8.83;6.53;;;;;;;5.78;73.17;100697.13;6223114;28;20228;-69
2022/12/09 12:36:37;;;;;;;8.10;5.60;;;;;;;6.02;72.45;100703.38;6233388;28;20245;-71
2022/12/09 12:40:06;;;;;;;8.30;6.30;;;;;;;6.30;71.86;100695.06;6230837;28;20232;-70
2022/12/09 12:47:33;;;;;;;7.40;4.87;;;;;;;6.22;71.59;100697.41;6224853;28;20285;-70
2022/12/09 12:51:12;;;;;;;8.30;6.07;;;;;;;6.36;70.53;100692.75;6222070;28;20821;-71
2022/12/09 12:54:44;;;;;;;9.00;5.97;;;;;;;7.39;67.05;100684.78;6221514;28;20249;-70
2022/12/09 12:58:10;;;;;;;8.80;6.37;;;;;;;7.22;67.96;100682.56;6209763;28;20228;-69
2022/12/09 13:01:34;;;;;;;6.80;5.43;;;;;;;7.05;67.31;100696.44;6221373;28;22059;-68
2022/12/09 13:05:02;;;;;;;9.40;6.77;;;;;;;6.08;70.88;100689.56;6224978;28;20256;-70
2022/12/09 13:08:29;;;;;;;11.10;6.47;;;;;;;5.97;70.88;100687.66;6219141;28;20756;-68
2022/12/09 13:12:02;;;;;;;15.20;7.90;;;;;;;5.36;71.87;100693.81;6220735;28;20236;-69
2022/12/09 13:15:30;;;;;;;9.93;5.93;;;;;;;6.12;70.71;100683.88;6212345;28;20320;-69
2022/12/09 13:18:52;;;;;;;8.77;5.63;;;;;;;4.28;75.43;100704.84;6218513;28;20799;-70
2022/12/09 13:22:20;;;;;;;11.17;5.40;;;;;;;3.75;78.16;100689.69;6215990;28;20233;-75
2022/12/09 13:25:46;;;;;;;7.97;6.07;;;;;;;3.53;79.09;100691.09;6224831;28;20232;-72
2022/12/09 13:29:21;;;;;;;8.47;6.93;;;;;;;4.01;78.50;100685.31;6229504;28;21165;-70
2022/12/09 13:33:01;;;;;;;9.13;6.90;;;;;;;4.47;77.48;100694.69;6218599;28;20237;-70
2022/12/09 13:36:33;;;;;;;6.20;4.57;;;;;;;4.34;76.59;100685.78;6228135;28;20253;-70
2022/12/09 13:39:57;;;;;;;7.17;5.67;;;;;;;4.00;78.37;100692.44;6213144;28;20502;-71
2022/12/09 13:43:23;;;;;;;7.10;6.17;;;;;;;3.92;77.92;100693.94;6225309;28;22040;-70
2022/12/09 13:46:44;;;;;;;6.60;4.87;;;;;;;3.44;80.07;100692.56;6221171;28;20637;-69
2022/12/09 13:50:08;;;;;;;9.73;5.57;;;;;;;3.50;80.03;100691.31;6231817;28;20229;-71
2022/12/09 13:53:32;;;;;;;6.60;5.37;;;;;;;3.55;80.23;100694.53;6227419;28;20228;-72
2022/12/09 13:57:12;;;;;;;7.60;5.17;;;;;;;3.55;79.93;100684.75;6228159;28;20228;-70
2022/12/09 14:00:34;;;;;;;7.73;5.37;;;;;;;3.20;81.05;100686.94;6222863;28;20277;-70
2022/12/09 14:04:05;;;;;;;11.27;7.40;;;;;;;2.72;83.03;100692.56;6227461;28;20241;-70
2022/12/09 14:07:34;;;;;;;10.63;6.70;;;;;;;2.76;83.85;100699.41;6212852;28;20341;-71
2022/12/09 14:10:55;;;;;;;8.03;6.17;;;;;;;2.84;83.55;100691.84;6220656;28;20227;-72
2022/12/09 14:14:55;;;;;;;7.47;5.27;;;;;;;2.84;83.58;100690.97;6214005;28;20232;-72
2022/12/09 14:18:30;;;;;;;6.23;5.63;;;;;;;2.82;83.76;100693.72;6223703;28;20232;-72
2022/12/09 14:22:24;;;;;;;12.60;6.63;;;;;;;2.84;83.99;100696.28;6209242;28;20229;-72
2022/12/09 14:26:08;;;;;;;10.57;6.50;;;;;;;2.60;84.56;100687.97;6210890;28;20348;-72
2022/12/09 14:29:51;;;;;;;7.93;6.63;;;;;;;2.71;85.07;100685.53;6219917;28;20236;-71
2022/12/09 14:33:21;;;;;;;7.27;5.30;;;;;;;2.76;84.50;100695.91;6219938;28;20236;-71
2022/12/09 14:36:52;;;;;;;9.73;6.47;;;;;;;2.67;85.05;100699.13;6226029;28;20236;-72
2022/12/09 14:40:25;;;;;;;13.07;7.70;;;;;;;2.65;85.27;100690.38;6218647;28;20239;-71
2022/12/09 14:44:06;;;;;;;8.57;5.77;;;;;;;2.76;84.89;100696.75;6228280;28;20321;-71
2022/12/09 14:47:30;;;;;;;11.80;6.83;;;;;;;2.72;85.08;100691.72;6223193;28;20236;-71
2022/12/09 14:51:07;;;;;;;8.23;7.13;;;;;;;2.64;85.52;100693.97;6218932;28;20236;-73
2022/12/09 14:54:32;;;;;;;12.03;7.67;;;;;;;2.67;85.79;100707.09;6223548;28;20235;-71
2022/12/09 14:57:58;;;;;;;7.27;5.40;;;;;;;2.55;85.93;100692.72;6222534;28;20236;-71
2022/12/09 15:01:19;;;;;;;9.27;5.30;;;;;;;2.59;85.87;100690.75;6221826;28;20232;-71
2022/12/09 15:04:41;;;;;;;10.83;6.13;;;;;;;2.68;85.93;100701.69;6223863;28;20232;-71
2022/12/09 15:08:02;;;;;;;8.30;6.53;;;;;;;2.68;85.50;100700.81;6229046;28;20240;-72
2022/12/09 15:11:27;;;;;;;5.43;4.77;;;;;;;2.52;85.64;100695.56;6228608;28;20675;-70
2022/12/09 15:14:53;;;;;;;8.07;5.63;;;;;;;2.47;85.50;100696.75;6227256;28;20228;-71
2022/12/09 15:18:18;;;;;;;8.70;5.17;;;;;;;2.09;86.31;100696.31;6228185;28;20649;-72
2022/12/09 15:21:39;;;;;;;8.63;4.73;;;;;;;2.17;86.67;100710.88;6227319;28;20220;-71
2022/12/09 15:25:01;;;;;;;6.27;5.03;;;;;;;2.17;86.62;100710.88;6227835;28;20632;-71
2022/12/09 15:28:25;;;;;;;8.70;7.77;;;;;;;2.13;86.95;100706.69;6228340;28;20327;-71
2022/12/09 15:31:48;;;;;;;7.90;5.83;;;;;;;2.11;86.95;100707.72;6223352;28;20228;-72
2022/12/09 15:35:16;;;;;;;8.27;6.10;;;;;;;2.07;86.81;100700.84;6231781;28;20237;-72
2022/12/09 15:38:42;;;;;;;11.40;6.23;;;;;;;1.88;87.99;100710.84;6235048;28;20240;-71
2022/12/09 15:42:08;;;;;;;9.87;5.93;;;;;;;1.73;88.71;100712.53;6233769;28;20260;-72
2022/12/09 15:45:35;;;;;;;7.43;5.63;;;;;;;1.71;88.75;100706.41;6229788;28;21915;-71
2022/12/09 15:48:59;;;;;;;11.63;7.13;;;;;;;1.68;88.61;100725.22;6231120;28;20240;-71
2022/12/09 15:52:26;;;;;;;11.47;7.00;;;;;;;1.60;89.40;100720.31;6237531;28;20407;-72
2022/12/09 15:55:50;;;;;;;8.43;5.80;;;;;;;1.69;89.07;100716.28;6233748;28;20618;-70
2022/12/09 15:59:18;;;;;;;9.70;6.33;;;;;;;1.60;89.34;100720.31;6233507;28;20556;-71
2022/12/09 16:02:40;;;;;;;7.60;6.23;;;;;;;1.59;89.02;100723.91;6229461;28;20244;-73